createdAt,value
2023-03-19T00:04:11.325Z,100195.34
2023-03-19T00:09:13.687Z,100193.53
2023-03-19T00:14:14.446Z,100203.09
2023-03-19T00:19:15.707Z,100191.75
2023-03-19T00:24:17.780Z,100195.31
2023-03-19T00:29:18.586Z,100197.09
2023-03-19T00:34:21.648Z,100198.84
2023-03-19T00:39:24.453Z,100193.84
2023-03-19T00:44:25.507Z,100198.19
2023-03-19T00:49:26.270Z,100193.03
2023-03-19T00:54:28.480Z,100197.34
2023-03-19T00:59:31.281Z,100192.22
2023-03-19T01:04:32.002Z,100195.66
2023-03-19T01:09:35.947Z,100206.19
2023-03-19T01:14:36.671Z,100207.06
2023-03-19T01:19:37.582Z,100197.53
2023-03-19T01:24:39.666Z,100182.91
2023-03-19T01:29:40.619Z,100178.69
2023-03-19T01:34:58.362Z,100177.91
2023-03-19T01:40:00.508Z,100178.81
2023-03-19T01:45:03.521Z,100178.78
2023-03-19T01:50:25.906Z,100169.16
2023-03-19T01:55:43.159Z,100177.81
2023-03-19T02:00:56.081Z,100187.28
2023-03-19T02:05:58.659Z,100188.19
2023-03-19T02:11:02.110Z,100192.41
2023-03-19T02:16:04.674Z,100196.75
2023-03-19T02:21:09.182Z,100178.63
2023-03-19T02:26:13.680Z,100175.13
2023-03-19T02:31:16.139Z,100179.34
2023-03-19T02:36:20.462Z,100177.50
2023-03-19T02:41:22.825Z,100184.50
2023-03-19T02:46:23.665Z,100180.22
2023-03-19T02:51:24.394Z,100182.78
2023-03-19T02:56:26.622Z,100171.47
2023-03-19T03:01:27.299Z,100171.56
2023-03-19T03:06:28.124Z,100168.16
2023-03-19T03:11:30.425Z,100180.16
2023-03-19T03:16:31.263Z,100192.44
2023-03-19T03:21:34.349Z,100200.19
2023-03-19T03:26:38.864Z,100217.56
2023-03-19T03:31:39.641Z,100219.56
2023-03-19T03:36:40.421Z,100215.31
2023-03-19T03:41:42.570Z,100197.13
2023-03-19T03:46:44.569Z,100209.16
2023-03-19T03:51:45.603Z,100229.13
2023-03-19T03:56:47.778Z,100213.72
2023-03-19T04:01:48.617Z,100214.59
2023-03-19T04:06:49.578Z,100223.31
2023-03-19T04:12:02.283Z,100219.84
2023-03-19T04:17:03.070Z,100213.81
2023-03-19T04:22:04.426Z,100208.75
2023-03-19T04:27:08.431Z,100204.31
2023-03-19T04:32:10.874Z,100211.22
2023-03-19T04:37:12.523Z,100207.66
2023-03-19T04:42:21.680Z,100213.75
2023-03-19T04:47:28.634Z,100205.94
2023-03-19T04:52:33.901Z,100205.03
2023-03-19T04:57:37.991Z,100207.66
2023-03-19T05:02:38.784Z,100211.16
2023-03-19T05:07:39.479Z,100225.13
2023-03-19T05:12:42.229Z,100234.66
2023-03-19T05:17:44.142Z,100219.22
2023-03-19T05:22:49.389Z,100226.13
2023-03-19T05:27:53.102Z,100221.03
2023-03-19T05:32:57.715Z,100227.09
2023-03-19T05:38:08.284Z,100214.09
2023-03-19T05:43:12.549Z,100225.25
2023-03-19T05:48:13.824Z,100225.22
2023-03-19T05:53:18.448Z,100225.19
2023-03-19T05:58:32.240Z,100234.66
2023-03-19T06:03:33.759Z,100231.91
2023-03-19T06:08:39.475Z,100240.44
2023-03-19T06:14:16.582Z,100248.94
2023-03-19T06:19:27.899Z,100242.91
2023-03-19T06:24:30.500Z,100242.00
2023-03-19T06:29:32.686Z,100230.69
2023-03-19T06:34:45.255Z,100240.13
2023-03-19T06:39:46.314Z,100234.84
2023-03-19T06:44:48.411Z,100237.31
2023-03-19T06:49:49.118Z,100237.09
2023-03-19T06:54:49.829Z,100246.31
2023-03-19T06:59:51.883Z,100245.25
2023-03-19T07:04:53.466Z,100237.34
2023-03-19T07:09:54.362Z,100254.34
2023-03-19T07:14:57.080Z,100266.59
2023-03-19T07:19:57.766Z,100268.78
2023-03-19T07:24:58.597Z,100282.28
2023-03-19T07:30:00.758Z,100282.88
2023-03-19T07:35:01.517Z,100273.66
2023-03-19T07:40:02.423Z,100276.91
2023-03-19T07:45:05.352Z,100263.66
2023-03-19T07:50:07.323Z,100273.47
2023-03-19T07:55:09.897Z,100264.88
2023-03-19T08:00:13.072Z,100260.75
2023-03-19T08:05:22.379Z,100259.84
2023-03-19T08:10:23.100Z,100262.94
2023-03-19T08:15:23.828Z,100262.81
2023-03-19T08:20:25.903Z,100261.16
2023-03-19T08:25:27.037Z,100264.81
2023-03-19T08:30:27.813Z,100266.53
2023-03-19T08:35:30.445Z,100259.59
2023-03-19T08:40:31.285Z,100265.91
2023-03-19T08:45:32.056Z,100265.69
2023-03-19T08:50:34.390Z,100267.19
2023-03-19T08:55:35.279Z,100262.28
2023-03-19T09:00:37.080Z,100269.00
2023-03-19T09:05:39.182Z,100264.72
2023-03-19T09:10:40.631Z,100265.16
2023-03-19T09:15:41.385Z,100279.00
2023-03-19T09:20:43.584Z,100268.22
2023-03-19T09:25:44.333Z,100275.22
2023-03-19T09:30:47.012Z,100274.47
2023-03-19T09:35:52.830Z,100272.75
2023-03-19T09:41:07.912Z,100269.56
2023-03-19T09:46:15.559Z,100268.97
2023-03-19T09:51:21.162Z,100267.22
2023-03-19T09:56:21.904Z,100258.34
2023-03-19T10:01:27.569Z,100247.22
2023-03-19T10:06:33.647Z,100245.56
2023-03-19T10:11:44.529Z,100237.84
2023-03-19T10:16:49.319Z,100231.75
2023-03-19T10:21:57.352Z,100239.34
2023-03-19T10:27:01.550Z,100233.28
2023-03-19T10:32:12.085Z,100234.56
2023-03-19T10:37:20.573Z,100240.75
2023-03-19T10:42:40.889Z,100237.03
2023-03-19T10:47:44.244Z,100222.97
2023-03-19T10:52:51.606Z,100229.53
2023-03-19T10:57:57.955Z,100221.78
2023-03-19T11:02:59.248Z,100215.50
2023-03-19T11:08:03.616Z,100218.28
2023-03-19T11:13:06.942Z,100228.63
2023-03-19T11:18:16.128Z,100219.50
2023-03-19T11:23:18.860Z,100214.28
2023-03-19T11:28:23.088Z,100205.53
2023-03-19T11:33:43.684Z,100203.03
2023-03-19T11:39:03.338Z,100198.16
2023-03-19T11:44:08.274Z,100197.63
2023-03-19T11:49:35.672Z,100201.38
2023-03-19T11:54:48.786Z,100194.28
2023-03-19T12:00:01.495Z,100190.72
2023-03-19T12:05:15.967Z,100190.53
2023-03-19T12:10:30.364Z,100186.06
2023-03-19T12:15:39.507Z,100194.69
2023-03-19T12:20:54.047Z,100180.59
2023-03-19T12:26:06.101Z,100184.28
2023-03-19T12:31:33.788Z,100194.75
2023-03-19T12:36:40.852Z,100191.09
2023-03-19T12:41:46.145Z,100193.47
2023-03-19T12:46:54.162Z,100183.19
2023-03-19T12:51:58.431Z,100191.63
2023-03-19T12:57:04.549Z,100185.09
2023-03-19T13:02:17.176Z,100188.38
2023-03-19T13:07:23.616Z,100194.59
2023-03-19T13:12:28.778Z,100187.34
2023-03-19T13:17:38.327Z,100186.31
2023-03-19T13:22:40.340Z,100189.97
2023-03-19T13:27:42.405Z,100193.13
2023-03-19T13:32:48.788Z,100188.75
2023-03-19T13:37:58.951Z,100185.84
2023-03-19T13:43:01.036Z,100183.41
2023-03-19T13:48:25.664Z,100178.94
2023-03-19T13:53:40.603Z,100176.31
2023-03-19T13:58:52.958Z,100184.41
2023-03-19T14:03:56.392Z,100180.31
2023-03-19T14:08:57.246Z,100179.06
2023-03-19T14:14:04.079Z,100179.41
2023-03-19T14:19:12.528Z,100179.25
2023-03-19T14:25:03.946Z,100184.69
2023-03-19T14:30:00.688Z,100174.25
2023-03-19T14:35:05.795Z,100172.38
2023-03-19T14:40:13.028Z,100177.72
2023-03-19T14:45:45.986Z,100183.34
2023-03-19T14:51:18.984Z,100179.09
2023-03-19T14:56:22.395Z,100180.06
2023-03-19T15:01:27.125Z,100177.28
2023-03-19T15:06:34.287Z,100183.72
2023-03-19T15:12:21.255Z,100178.81
2023-03-19T15:17:27.013Z,100179.66
2023-03-19T15:22:31.349Z,100181.75
2023-03-19T15:27:32.137Z,100180.75
2023-03-19T15:32:52.234Z,100192.03
2023-03-19T15:38:00.803Z,100190.84
2023-03-19T15:43:03.626Z,100193.22
2023-03-19T15:48:10.653Z,100206.22
2023-03-19T15:53:16.643Z,100208.16
2023-03-19T15:58:22.379Z,100223.81
2023-03-19T16:03:38.939Z,100233.00
2023-03-19T16:08:48.000Z,100238.66
2023-03-19T16:13:58.040Z,100249.91
2023-03-19T16:19:00.885Z,100252.44
2023-03-19T16:24:04.521Z,100251.88
2023-03-19T16:29:17.921Z,100261.69
2023-03-19T16:34:38.278Z,100268.31
2023-03-19T16:39:55.214Z,100276.13
2023-03-19T16:44:56.396Z,100283.63
2023-03-19T16:49:58.400Z,100293.97
2023-03-19T16:55:00.148Z,100307.56
2023-03-19T17:00:00.961Z,100307.81
2023-03-19T17:05:03.422Z,100310.19
2023-03-19T17:10:04.626Z,100327.78
2023-03-19T17:15:06.989Z,100322.16
2023-03-19T17:20:15.390Z,100321.97
2023-03-19T17:25:19.168Z,100329.06
2023-03-19T17:30:20.217Z,100324.97
2023-03-19T17:35:23.537Z,100330.00
2023-03-19T17:40:27.467Z,100332.88
2023-03-19T17:45:30.185Z,100336.91
2023-03-19T17:50:33.533Z,100340.81
2023-03-19T17:55:34.401Z,100338.31
2023-03-19T18:00:35.426Z,100340.28
2023-03-19T18:05:37.734Z,100340.81
2023-03-19T18:10:38.454Z,100343.63
2023-03-19T18:15:41.088Z,100355.97
2023-03-19T18:20:43.375Z,100359.28
2023-03-19T18:25:44.968Z,100361.31
2023-03-19T18:30:46.343Z,100359.44
2023-03-19T18:35:48.887Z,100365.00
2023-03-19T18:40:50.380Z,100366.13
2023-03-19T18:45:54.693Z,100369.03
2023-03-19T18:50:57.174Z,100371.75
2023-03-19T18:55:58.368Z,100374.22
2023-03-19T19:01:01.452Z,100378.50
2023-03-19T19:06:03.947Z,100380.19
2023-03-19T19:11:07.363Z,100374.16
2023-03-19T19:16:11.523Z,100376.84
2023-03-19T19:21:13.973Z,100389.09
2023-03-19T19:26:21.874Z,100391.84
2023-03-19T19:31:25.672Z,100398.75
2023-03-19T19:36:28.844Z,100402.25
2023-03-19T19:41:29.650Z,100404.09
2023-03-19T19:46:32.553Z,100408.53
2023-03-19T19:51:34.604Z,100397.31
2023-03-19T19:56:35.490Z,100404.13
2023-03-19T20:01:40.511Z,100415.47
2023-03-19T20:06:42.727Z,100414.25
2023-03-19T20:11:43.690Z,100413.81
2023-03-19T20:16:44.432Z,100415.41
2023-03-19T20:21:46.550Z,100418.91
2023-03-19T20:26:47.308Z,100417.38
2023-03-19T20:31:48.050Z,100423.00
2023-03-19T20:36:50.227Z,100427.72
2023-03-19T20:41:51.717Z,100423.38
2023-03-19T20:46:52.600Z,100419.84
2023-03-19T20:51:54.758Z,100434.81
2023-03-19T20:56:56.122Z,100430.56
2023-03-19T21:01:57.309Z,100422.88
2023-03-19T21:06:59.413Z,100433.38
2023-03-19T21:12:00.537Z,100431.72
2023-03-19T21:17:01.250Z,100428.28
2023-03-19T21:22:03.439Z,100429.13
2023-03-19T21:27:04.245Z,100423.09
2023-03-19T21:32:11.110Z,100420.59
2023-03-19T21:37:13.462Z,100416.47
2023-03-19T21:42:18.013Z,100420.91
2023-03-19T21:47:21.398Z,100423.69
2023-03-19T21:52:23.601Z,100433.22
2023-03-19T21:57:24.607Z,100426.47
2023-03-19T22:02:47.332Z,100427.56
2023-03-19T22:07:49.739Z,100426.81
2023-03-19T22:12:51.204Z,100429.56
2023-03-19T22:17:52.019Z,100431.47
2023-03-19T22:22:55.438Z,100426.28
2023-03-19T22:27:56.858Z,100429.75
2023-03-19T22:32:59.179Z,100437.75
2023-03-19T22:38:01.299Z,100443.72
2023-03-19T22:43:02.205Z,100443.72
2023-03-19T22:48:03.664Z,100436.00
2023-03-19T22:53:20.782Z,100440.97
2023-03-19T22:58:21.535Z,100436.59
2023-03-19T23:03:25.776Z,100435.63
2023-03-19T23:08:28.261Z,100429.63
2023-03-19T23:13:28.885Z,100430.47
2023-03-19T23:18:31.433Z,100440.09
2023-03-19T23:23:33.634Z,100433.16
2023-03-19T23:28:35.992Z,100432.47
2023-03-19T23:33:37.284Z,100433.25
2023-03-19T23:38:39.290Z,100427.25
2023-03-19T23:43:41.067Z,100422.81
2023-03-19T23:48:42.156Z,100427.94
2023-03-19T23:53:44.902Z,100427.88
2023-03-19T23:58:47.110Z,100417.59
